Time;durP1;ratioP1;P1;durP2;ratioP2;P2;SDS_P1;SDS_P2;PMS_P1;PMS_P2;Temp;Humidity;BMP_temperature;BMP_pressure;BME280_temperature;BME280_humidity;BME280_pressure;Samples;Min_cycle;Max_cycle;Signal;HPM_P1;HPM_P2
2023/04/02 00:05:33;;;;;;;5.93;3.05;;;7.40;73.70;;;;;;20704855;28;20041;-39
2023/04/02 00:15:35;;;;;;;6.00;4.03;;;7.30;70.00;;;;;;20718047;28;20060;-39
2023/04/02 00:25:41;;;;;;;8.60;3.88;;;7.20;63.90;;;;;;20763127;28;20370;-39
2023/04/02 00:35:43;;;;;;;7.03;4.00;;;7.30;67.80;;;;;;20807429;28;20700;-39
2023/04/02 00:45:49;;;;;;;6.40;2.72;;;7.20;59.90;;;;;;20807674;28;20526;-39
2023/04/02 00:55:51;;;;;;;6.13;3.87;;;7.20;55.60;;;;;;20805310;28;20592;-39
2023/04/02 01:06:09;;;;;;;5.47;2.70;;;7.20;46.10;;;;;;20737785;28;20045;-39
2023/04/02 01:16:30;;;;;;;5.95;3.45;;;7.00;46.00;;;;;;20725555;28;20437;-39
2023/04/02 01:26:56;;;;;;;7.00;3.25;;;7.10;35.80;;;;;;20709673;28;20109;-39
2023/04/02 01:37:21;;;;;;;6.55;2.60;;;7.00;33.50;;;;;;20719497;28;20374;-39
2023/04/02 01:47:26;;;;;;;5.93;2.35;;;6.90;31.40;;;;;;20710624;28;20050;-40
2023/04/02 01:57:27;;;;;;;3.58;2.38;;;6.80;37.00;;;;;;20721316;28;20046;-40
2023/04/02 02:07:28;;;;;;;5.05;2.20;;;6.80;33.80;;;;;;20725470;28;20513;-39
2023/04/02 02:17:33;;;;;;;6.13;2.30;;;6.80;27.40;;;;;;20722131;28;20045;-39
2023/04/02 02:27:41;;;;;;;3.95;2.28;;;6.60;27.10;;;;;;20726214;28;20038;-39
2023/04/02 02:37:46;;;;;;;6.22;3.47;;;6.60;27.40;;;;;;21532581;23;20086;-78
2023/04/02 02:47:50;;;;;;;5.78;2.40;;;6.50;23.10;;;;;;20843122;28;20104;-78
2023/04/02 02:58:12;;;;;;;5.00;2.50;;;6.40;21.90;;;;;;20847805;28;20060;-78
2023/04/02 03:08:23;;;;;;;5.07;1.80;;;6.30;16.40;;;;;;20831728;28;20418;-79
2023/04/02 03:18:37;;;;;;;2.72;1.70;;;6.20;14.60;;;;;;20834435;28;20041;-79
2023/04/02 03:28:44;;;;;;;4.40;2.10;;;6.20;14.30;;;;;;20838663;28;20039;-78
2023/04/02 03:38:59;;;;;;;5.47;2.73;;;6.00;17.40;;;;;;20770626;23;20069;-41
2023/04/02 03:49:09;;;;;;;4.97;2.35;;;6.10;16.20;;;;;;20716810;28;20040;-41
2023/04/02 03:59:38;;;;;;;3.30;1.92;;;5.90;15.50;;;;;;20718374;28;20049;-41
2023/04/02 04:09:44;;;;;;;4.25;1.63;;;5.80;16.30;;;;;;20721675;28;21629;-41
2023/04/02 04:19:57;;;;;;;4.30;1.65;;;5.80;13.50;;;;;;20745199;28;20040;-41
2023/04/02 04:30:13;;;;;;;3.50;1.83;;;5.70;8.50;;;;;;20741327;28;20025;-41
2023/04/02 04:40:21;;;;;;;5.82;2.83;;;5.70;8.10;;;;;;20783913;28;20097;-41
2023/04/02 04:50:37;;;;;;;5.35;2.97;;;5.60;5.20;;;;;;20727871;28;20048;-40
2023/04/02 05:00:46;;;;;;;4.95;2.38;;;5.50;4.60;;;;;;20736459;28;20556;-41
2023/04/02 05:10:57;;;;;;;4.38;2.25;;;5.40;2.40;;;;;;20721055;28;20038;-41
2023/04/02 05:21:13;;;;;;;4.95;2.28;;;5.40;2.60;;;;;;20726888;28;20053;-41
2023/04/02 05:31:24;;;;;;;2.60;1.42;;;5.10;1.00;;;;;;20786945;28;20040;-40
2023/04/02 05:41:35;;;;;;;3.45;1.25;;;4.90;1.00;;;;;;20734026;28;20399;-40
2023/04/02 05:51:47;;;;;;;4.45;1.95;;;4.70;1.00;;;;;;20706287;28;20521;-40
2023/04/02 06:02:01;;;;;;;2.67;1.00;;;4.40;1.00;;;;;;20724438;28;20041;-40
2023/04/02 06:12:22;;;;;;;2.58;1.00;;;4.40;1.00;;;;;;20702319;28;21422;-40
2023/04/02 06:22:31;;;;;;;2.55;1.20;;;4.30;1.00;;;;;;20713505;28;21283;-41
2023/04/02 06:32:32;;;;;;;5.72;1.65;;;4.20;1.00;;;;;;20731318;28;20052;-43
2023/04/02 06:42:37;;;;;;;4.78;2.15;;;4.10;1.00;;;;;;20757030;28;20049;-42
2023/04/02 06:52:54;;;;;;;3.65;1.63;;;4.00;1.00;;;;;;20791497;28;20119;-43
2023/04/02 07:02:58;;;;;;;2.97;1.50;;;4.00;1.00;;;;;;20790141;28;20044;-42
2023/04/02 07:13:01;;;;;;;3.40;1.92;;;4.00;1.00;;;;;;20778757;28;20033;-43
2023/04/02 07:23:03;;;;;;;2.78;1.40;;;4.00;1.00;;;;;;20715257;28;20026;-43
2023/04/02 07:33:04;;;;;;;2.30;1.30;;;4.00;1.00;;;;;;20719811;28;20096;-41
2023/04/02 07:43:05;;;;;;;3.95;1.67;;;4.00;1.00;;;;;;20713035;28;20065;-41
2023/04/02 07:53:08;;;;;;;2.00;0.80;;;4.10;1.00;;;;;;20724328;28;20584;-41
2023/04/02 08:03:11;;;;;;;4.95;1.10;;;4.20;1.00;;;;;;20729511;28;20044;-41
2023/04/02 08:13:13;;;;;;;2.72;1.08;;;4.10;1.00;;;;;;20749506;28;20054;-40
2023/04/02 08:23:16;;;;;;;2.58;1.10;;;4.20;1.00;;;;;;20784345;28;20052;-40
2023/04/02 08:33:18;;;;;;;3.40;1.33;;;4.20;1.00;;;;;;20732967;28;20409;-41
2023/04/02 08:43:36;;;;;;;1.83;0.85;;;4.30;1.00;;;;;;20725412;28;20034;-43
2023/04/02 08:53:39;;;;;;;3.38;1.40;;;4.30;1.00;;;;;;20728421;28;20797;-41
2023/04/02 09:03:46;;;;;;;4.78;2.25;;;4.40;1.00;;;;;;20742347;28;20405;-41
2023/04/02 09:13:57;;;;;;;2.85;1.73;;;4.50;1.00;;;;;;20744627;28;20045;-41
2023/04/02 09:23:58;;;;;;;3.40;1.77;;;4.60;1.00;;;;;;20721486;28;20607;-42
2023/04/02 09:33:59;;;;;;;6.13;2.17;;;4.80;1.00;;;;;;20781107;28;20044;-42
2023/04/02 09:44:20;;;;;;;4.57;1.23;;;5.80;1.00;;;;;;20712011;28;20060;-43
2023/04/02 09:54:21;;;;;;;2.45;1.23;;;6.50;1.00;;;;;;20732555;28;20546;-42
2023/04/02 10:04:34;;;;;;;5.35;2.03;;;7.00;1.00;;;;;;20714172;28;21406;-43
2023/04/02 10:14:45;;;;;;;2.60;1.20;;;7.60;1.00;;;;;;20793338;28;21504;-43
2023/04/02 10:24:47;;;;;;;10.23;1.58;;;8.10;1.00;;;;;;20775486;28;20045;-43
2023/04/02 10:35:03;;;;;;;1.88;0.80;;;8.00;1.00;;;;;;20733860;28;20041;-43
2023/04/02 10:45:30;;;;;;;1.42;0.60;;;8.10;1.00;;;;;;20731515;28;20048;-42
2023/04/02 10:55:39;;;;;;;4.23;2.20;;;8.50;1.00;;;;;;20719079;28;20045;-42
2023/04/02 11:05:47;;;;;;;5.85;1.30;;;8.80;1.00;;;;;;20728377;28;20038;-41
2023/04/02 11:15:49;;;;;;;2.22;1.35;;;9.30;1.00;;;;;;20746077;28;20453;-42
2023/04/02 11:25:50;;;;;;;1.55;0.68;;;9.60;1.00;;;;;;20749304;28;20030;-41
2023/04/02 11:35:51;;;;;;;1.35;0.77;;;10.00;1.00;;;;;;20716542;28;20042;-42
2023/04/02 11:45:55;;;;;;;2.15;0.70;;;10.60;1.00;;;;;;20717208;28;20044;-41
2023/04/02 11:55:57;;;;;;;1.95;0.85;;;10.80;1.00;;;;;;20748231;28;20620;-41
2023/04/02 12:06:28;;;;;;;1.23;0.50;;;11.50;1.00;;;;;;20747546;28;20507;-41
2023/04/02 12:16:33;;;;;;;5.22;0.80;;;11.70;1.00;;;;;;20744595;28;20558;-42
2023/04/02 12:26:36;;;;;;;0.88;0.50;;;11.70;1.00;;;;;;20743176;28;20045;-42
2023/04/02 12:36:37;;;;;;;1.17;0.50;;;11.80;1.00;;;;;;20744566;28;20053;-41
2023/04/02 12:46:39;;;;;;;1.67;0.88;;;11.90;1.00;;;;;;20734543;28;20037;-41
2023/04/02 12:56:40;;;;;;;1.02;0.60;;;12.30;1.00;;;;;;20746574;28;20042;-41
2023/04/02 13:06:51;;;;;;;3.25;1.05;;;12.60;1.00;;;;;;20758512;28;20408;-41
2023/04/02 13:16:52;;;;;;;1.38;0.60;;;13.10;1.00;;;;;;20736249;28;20504;-41
2023/04/02 13:27:01;;;;;;;4.65;1.05;;;13.80;1.00;;;;;;20747909;28;20373;-42
2023/04/02 13:37:02;;;;;;;2.13;1.00;;;14.50;1.00;;;;;;20749879;28;20405;-42
2023/04/02 13:47:03;;;;;;;2.47;0.80;;;14.90;1.00;;;;;;20746477;28;21443;-40
2023/04/02 13:57:05;;;;;;;0.75;0.50;;;15.20;1.00;;;;;;20753906;28;20042;-40
2023/04/02 14:07:35;;;;;;;0.57;0.30;;;15.90;1.00;;;;;;20764712;28;20188;-40
2023/04/02 14:17:46;;;;;;;3.88;0.43;;;15.90;1.00;;;;;;20754091;28;20050;-39
2023/04/02 14:28:00;;;;;;;1.50;0.68;;;14.80;1.00;;;;;;20734960;28;20041;-42
2023/04/02 14:38:25;;;;;;;1.75;0.73;;;13.90;1.00;;;;;;20734044;28;20045;-42
2023/04/02 14:48:50;;;;;;;1.55;0.70;;;13.20;1.00;;;;;;20724978;28;20045;-42
2023/04/02 14:59:14;;;;;;;3.03;0.70;;;12.70;1.00;;;;;;20747906;28;20041;-42
2023/04/02 15:09:22;;;;;;;1.45;0.60;;;12.40;1.00;;;;;;20706473;28;20497;-42
2023/04/02 15:19:24;;;;;;;1.42;0.60;;;11.90;1.00;;;;;;20745915;28;20556;-42
2023/04/02 15:30:00;;;;;;;2.88;0.80;;;11.90;1.00;;;;;;20812756;28;21499;-41
2023/04/02 15:40:33;;;;;;;1.42;0.50;;;11.80;1.00;;;;;;20815093;28;20055;-42
2023/04/02 15:50:40;;;;;;;1.75;0.85;;;11.50;1.00;;;;;;20702872;28;22176;-42
2023/04/02 16:01:00;;;;;;;1.30;0.50;;;11.40;1.00;;;;;;20751974;28;20053;-41
2023/04/02 16:11:01;;;;;;;1.88;0.70;;;11.20;1.00;;;;;;20757717;28;20037;-41
2023/04/02 16:21:03;;;;;;;0.88;0.50;;;11.00;1.00;;;;;;20751110;28;20156;-42
2023/04/02 16:31:43;;;;;;;1.15;0.60;;;10.80;1.00;;;;;;20751140;28;20045;-42
2023/04/02 16:42:12;;;;;;;1.55;0.40;;;10.60;1.00;;;;;;20736596;28;20049;-41
2023/04/02 16:52:21;;;;;;;1.85;0.70;;;10.40;1.00;;;;;;20731147;28;20457;-41
2023/04/02 17:02:49;;;;;;;2.22;0.40;;;10.30;1.00;;;;;;20736372;28;20034;-41
2023/04/02 17:12:56;;;;;;;0.80;0.43;;;10.20;1.00;;;;;;20738889;28;20117;-42
2023/04/02 17:22:57;;;;;;;5.82;0.98;;;10.10;1.00;;;;;;20754169;28;20400;-41
2023/04/02 17:32:58;;;;;;;2.92;1.33;;;9.90;1.00;;;;;;20759689;28;20144;-41
2023/04/02 17:43:10;;;;;;;3.28;0.95;;;9.80;1.00;;;;;;20745971;28;20038;-41
2023/04/02 17:53:20;;;;;;;6.97;0.85;;;9.60;1.00;;;;;;20745194;28;20037;-41
2023/04/02 18:03:48;;;;;;;1.77;1.00;;;9.50;1.00;;;;;;20722501;28;20374;-41
2023/04/02 18:13:58;;;;;;;1.17;0.65;;;9.40;1.00;;;;;;20708783;28;20409;-41
2023/04/02 18:24:18;;;;;;;1.38;0.55;;;9.10;1.00;;;;;;20721289;28;20081;-41
2023/04/02 18:34:38;;;;;;;3.78;0.45;;;8.90;1.00;;;;;;20725519;28;20046;-42
2023/04/02 18:45:12;;;;;;;3.60;0.70;;;8.80;1.00;;;;;;20720251;28;20041;-41
2023/04/02 18:55:23;;;;;;;2.85;0.52;;;8.60;1.00;;;;;;20753991;28;20045;-41
2023/04/02 19:05:49;;;;;;;2.05;0.85;;;8.50;1.00;;;;;;20729144;28;20344;-41
2023/04/02 19:15:53;;;;;;;1.92;0.85;;;8.30;1.00;;;;;;20722602;28;20048;-41
2023/04/02 19:26:07;;;;;;;3.83;1.27;;;8.20;1.00;;;;;;20788808;28;20033;-42
2023/04/02 19:36:16;;;;;;;0.80;0.40;;;8.10;1.00;;;;;;20713283;28;20595;-41
2023/04/02 19:46:17;;;;;;;1.15;0.65;;;7.90;1.00;;;;;;20718197;28;20038;-41
2023/04/02 19:56:20;;;;;;;1.67;0.93;;;7.80;1.00;;;;;;20715358;28;20041;-41
2023/04/02 20:06:21;;;;;;;1.35;0.52;;;7.70;1.00;;;;;;20720963;28;20038;-42
2023/04/02 20:16:23;;;;;;;0.55;0.30;;;7.70;1.00;;;;;;20758190;28;20053;-42
2023/04/02 20:26:26;;;;;;;1.30;0.68;;;7.60;1.00;;;;;;20766200;28;20043;-42
2023/04/02 20:36:27;;;;;;;0.70;0.32;;;7.50;1.00;;;;;;20812715;28;20519;-42
2023/04/02 20:46:28;;;;;;;2.75;0.90;;;7.40;1.00;;;;;;20811647;28;20041;-42
2023/04/02 20:56:29;;;;;;;1.05;0.57;;;7.40;1.00;;;;;;20800664;28;20052;-43
2023/04/02 21:06:36;;;;;;;1.63;0.73;;;7.20;1.00;;;;;;20789668;28;20045;-42
2023/04/02 21:16:39;;;;;;;0.57;0.30;;;7.10;1.00;;;;;;20808621;28;20056;-42
2023/04/02 21:26:40;;;;;;;2.53;0.43;;;7.00;1.00;;;;;;20792736;28;20040;-42
2023/04/02 21:36:44;;;;;;;1.15;0.30;;;6.90;1.00;;;;;;20752160;28;20057;-42
2023/04/02 21:46:45;;;;;;;1.85;0.50;;;6.80;1.00;;;;;;20766355;28;20476;-42
2023/04/02 21:56:47;;;;;;;0.60;0.25;;;6.60;1.00;;;;;;20783711;28;20041;-42
2023/04/02 22:06:48;;;;;;;0.88;0.30;;;6.50;1.00;;;;;;20721483;28;20700;-42
2023/04/02 22:16:50;;;;;;;1.50;0.40;;;6.40;1.00;;;;;;20740633;28;20424;-42
2023/04/02 22:26:51;;;;;;;0.73;0.20;;;6.30;1.00;;;;;;20732924;28;20493;-42
2023/04/02 22:36:53;;;;;;;1.98;0.30;;;6.20;1.00;;;;;;20727881;28;20374;-42
2023/04/02 22:46:55;;;;;;;0.80;0.15;;;6.00;1.00;;;;;;20740588;28;20445;-42
2023/04/02 22:56:56;;;;;;;0.43;0.15;;;6.00;1.00;;;;;;20782492;28;20041;-42
2023/04/02 23:06:57;;;;;;;1.45;0.30;;;5.80;1.00;;;;;;20798815;28;20583;-43
2023/04/02 23:16:58;;;;;;;1.20;0.40;;;5.70;1.00;;;;;;20779546;28;20068;-43
2023/04/02 23:26:59;;;;;;;0.98;0.30;;;5.50;1.00;;;;;;20780799;28;20045;-42
2023/04/02 23:37:00;;;;;;;0.60;0.22;;;5.50;1.00;;;;;;20768185;28;20489;-42
2023/04/02 23:47:02;;;;;;;1.55;0.85;;;5.30;1.00;;;;;;20712573;28;20414;-42
2023/04/02 23:57:03;;;;;;;3.65;1.05;;;5.20;1.00;;;;;;20726399;28;20045;-42
